KMHS/MHS METAR and TAF weather

Enter ICAO airport designator
Station Type Date Time Source
KMHS METAR 2019/06/18 14:56 UTC NOAA

KMHS 181456Z AUTO VRB04KT 10SM CLR 18/08 A3018 RMK AO2 SLP205 T01780078 51010


Station Type Date Time Source
KMHS Decoded METAR 2019/06/18 14:56 UTC NOAA

MOUNT SHASTA, CA, United States (KMHS) 41-19N 122-19W 1078M
Jun 18, 2019 - 10:56 AM EDT / 2019.06.18 1456 UTC
Wind: Variable at 5 MPH (4 KT):0
Visibility: 10 mile(s):0
Sky conditions: clear
Temperature: 64.0 F (17.8 C)
Dew Point: 46.0 F (7.8 C)
Relative Humidity: 51%
Pressure (altimeter): 30.18 in. Hg (1022 hPa)
Pressure tendency: 0.03 inches (1.0 hPa) higher than three hours ago
ob: KMHS 181456Z AUTO VRB04KT 10SM CLR 18/08 A3018 RMK AO2 SLP205 T01780078 51010
cycle: 15

Station Type Date Time Source
KMHS TAF UTC NOAA

Error!

Example: see airport list